sensor_id;sensor_type;location;lat;lon;timestamp;pressure;altitude;pressure_sealevel;temperature;humidity
61761;BME280;47664;51.660;-0.100;2023-03-21T00:02:09;100652.52;;;10.31;68.07
61761;BME280;47664;51.660;-0.100;2023-03-21T00:04:37;100647.67;;;10.13;68.02
61761;BME280;47664;51.660;-0.100;2023-03-21T00:07:04;100644.09;;;10.01;67.50
61761;BME280;47664;51.660;-0.100;2023-03-21T00:09:31;100639.24;;;9.93;68.05
61761;BME280;47664;51.660;-0.100;2023-03-21T00:11:59;100639.68;;;10.09;68.25
61761;BME280;47664;51.660;-0.100;2023-03-21T00:14:26;100631.94;;;9.61;68.71
61761;BME280;47664;51.660;-0.100;2023-03-21T00:16:54;100626.15;;;9.38;69.86
61761;BME280;47664;51.660;-0.100;2023-03-21T00:19:21;100621.84;;;9.64;69.10
61761;BME280;47664;51.660;-0.100;2023-03-21T00:21:49;100616.50;;;9.18;69.88
61761;BME280;47664;51.660;-0.100;2023-03-21T00:24:16;100619.03;;;9.87;68.83
61761;BME280;47664;51.660;-0.100;2023-03-21T00:26:43;100619.37;;;9.36;68.06
61761;BME280;47664;51.660;-0.100;2023-03-21T00:29:11;100617.81;;;10.02;67.14
61761;BME280;47664;51.660;-0.100;2023-03-21T00:31:38;100617.30;;;9.57;68.02
61761;BME280;47664;51.660;-0.100;2023-03-21T00:34:06;100618.82;;;9.82;68.53
61761;BME280;47664;51.660;-0.100;2023-03-21T00:36:33;100612.84;;;9.74;68.31
61761;BME280;47664;51.660;-0.100;2023-03-21T00:39:00;100612.37;;;9.65;68.33
61761;BME280;47664;51.660;-0.100;2023-03-21T00:44:08;100609.91;;;9.91;68.65
61761;BME280;47664;51.660;-0.100;2023-03-21T00:46:36;100604.51;;;9.91;67.27
61761;BME280;47664;51.660;-0.100;2023-03-21T00:49:03;100598.73;;;10.02;67.26
61761;BME280;47664;51.660;-0.100;2023-03-21T00:51:30;100593.35;;;9.76;66.90
61761;BME280;47664;51.660;-0.100;2023-03-21T00:53:58;100595.55;;;9.46;67.94
61761;BME280;47664;51.660;-0.100;2023-03-21T00:56:25;100592.90;;;9.63;67.93
61761;BME280;47664;51.660;-0.100;2023-03-21T00:58:52;100586.50;;;9.65;67.82
61761;BME280;47664;51.660;-0.100;2023-03-21T01:01:20;100580.63;;;9.48;68.61
61761;BME280;47664;51.660;-0.100;2023-03-21T01:03:47;100572.77;;;9.20;67.75
61761;BME280;47664;51.660;-0.100;2023-03-21T01:06:15;100569.48;;;9.56;68.44
61761;BME280;47664;51.660;-0.100;2023-03-21T01:08:42;100567.26;;;8.88;68.94
61761;BME280;47664;51.660;-0.100;2023-03-21T01:11:12;100562.46;;;9.28;69.44
61761;BME280;47664;51.660;-0.100;2023-03-21T01:13:40;100555.60;;;9.18;68.33
61761;BME280;47664;51.660;-0.100;2023-03-21T01:16:08;100552.30;;;9.30;67.85
61761;BME280;47664;51.660;-0.100;2023-03-21T01:18:38;100545.30;;;10.26;66.72
61761;BME280;47664;51.660;-0.100;2023-03-21T01:21:08;100545.52;;;9.98;67.32
61761;BME280;47664;51.660;-0.100;2023-03-21T01:23:37;100539.31;;;9.61;68.16
61761;BME280;47664;51.660;-0.100;2023-03-21T01:26:06;100532.30;;;9.83;68.29
61761;BME280;47664;51.660;-0.100;2023-03-21T01:28:36;100527.17;;;10.19;67.06
61761;BME280;47664;51.660;-0.100;2023-03-21T01:31:04;100523.30;;;9.56;66.84
61761;BME280;47664;51.660;-0.100;2023-03-21T01:33:32;100515.88;;;9.72;67.36
61761;BME280;47664;51.660;-0.100;2023-03-21T01:36:00;100507.91;;;10.38;66.25
61761;BME280;47664;51.660;-0.100;2023-03-21T01:38:27;100511.42;;;9.66;67.41
61761;BME280;47664;51.660;-0.100;2023-03-21T01:40:54;100512.70;;;9.66;67.52
61761;BME280;47664;51.660;-0.100;2023-03-21T01:43:24;100512.61;;;9.27;68.32
61761;BME280;47664;51.660;-0.100;2023-03-21T01:46:34;100513.83;;;8.57;69.18
61761;BME280;47664;51.660;-0.100;2023-03-21T01:49:05;100510.41;;;9.27;67.91
61761;BME280;47664;51.660;-0.100;2023-03-21T01:51:36;100510.08;;;9.98;66.68
61761;BME280;47664;51.660;-0.100;2023-03-21T01:54:08;100502.10;;;9.89;66.40
61761;BME280;47664;51.660;-0.100;2023-03-21T01:56:38;100503.55;;;9.56;66.71
61761;BME280;47664;51.660;-0.100;2023-03-21T01:59:11;100501.68;;;9.48;67.91
61761;BME280;47664;51.660;-0.100;2023-03-21T02:01:40;100502.47;;;8.83;68.81
61761;BME280;47664;51.660;-0.100;2023-03-21T02:04:09;100498.16;;;9.16;68.60
61761;BME280;47664;51.660;-0.100;2023-03-21T02:06:42;100492.67;;;9.10;67.96
61761;BME280;47664;51.660;-0.100;2023-03-21T02:09:17;100499.89;;;9.53;67.54
61761;BME280;47664;51.660;-0.100;2023-03-21T02:11:45;100490.40;;;9.04;66.13
61761;BME280;47664;51.660;-0.100;2023-03-21T02:14:14;100485.66;;;9.46;67.06
61761;BME280;47664;51.660;-0.100;2023-03-21T02:16:48;100479.78;;;9.86;66.71
61761;BME280;47664;51.660;-0.100;2023-03-21T02:19:50;100476.50;;;9.72;67.04
61761;BME280;47664;51.660;-0.100;2023-03-21T02:22:42;100460.73;;;9.44;67.51
61761;BME280;47664;51.660;-0.100;2023-03-21T02:26:30;100457.21;;;9.40;66.84
61761;BME280;47664;51.660;-0.100;2023-03-21T02:29:06;100459.63;;;9.49;66.29
61761;BME280;47664;51.660;-0.100;2023-03-21T02:31:43;100453.08;;;9.38;66.41
61761;BME280;47664;51.660;-0.100;2023-03-21T02:35:04;100445.68;;;9.73;66.00
61761;BME280;47664;51.660;-0.100;2023-03-21T02:37:39;100441.99;;;9.41;66.81
61761;BME280;47664;51.660;-0.100;2023-03-21T02:40:10;100440.19;;;9.55;67.01
61761;BME280;47664;51.660;-0.100;2023-03-21T02:42:52;100444.07;;;8.69;67.93
61761;BME280;47664;51.660;-0.100;2023-03-21T02:45:25;100442.69;;;9.77;67.13
61761;BME280;47664;51.660;-0.100;2023-03-21T02:47:59;100436.45;;;9.29;67.41
61761;BME280;47664;51.660;-0.100;2023-03-21T02:50:32;100435.96;;;9.71;66.60
61761;BME280;47664;51.660;-0.100;2023-03-21T02:53:03;100432.64;;;9.38;67.42
61761;BME280;47664;51.660;-0.100;2023-03-21T02:55:35;100436.53;;;9.03;68.20
61761;BME280;47664;51.660;-0.100;2023-03-21T02:58:05;100431.29;;;9.58;67.66
61761;BME280;47664;51.660;-0.100;2023-03-21T03:00:34;100434.38;;;9.37;67.33
61761;BME280;47664;51.660;-0.100;2023-03-21T03:03:02;100428.10;;;9.62;66.13
61761;BME280;47664;51.660;-0.100;2023-03-21T03:05:33;100423.51;;;9.54;66.17
61761;BME280;47664;51.660;-0.100;2023-03-21T03:08:16;100419.19;;;9.58;65.91
61761;BME280;47664;51.660;-0.100;2023-03-21T03:11:00;100416.64;;;9.33;65.15
61761;BME280;47664;51.660;-0.100;2023-03-21T03:13:38;100417.55;;;10.16;64.82
61761;BME280;47664;51.660;-0.100;2023-03-21T03:16:15;100417.94;;;10.11;64.32
61761;BME280;47664;51.660;-0.100;2023-03-21T03:18:50;100415.61;;;10.11;64.76
61761;BME280;47664;51.660;-0.100;2023-03-21T03:21:24;100411.26;;;9.92;64.76
61761;BME280;47664;51.660;-0.100;2023-03-21T03:23:56;100411.03;;;9.99;63.94
61761;BME280;47664;51.660;-0.100;2023-03-21T03:26:28;100407.61;;;9.81;64.86
61761;BME280;47664;51.660;-0.100;2023-03-21T03:29:00;100403.97;;;9.56;65.18
61761;BME280;47664;51.660;-0.100;2023-03-21T03:31:32;100404.00;;;9.45;65.21
61761;BME280;47664;51.660;-0.100;2023-03-21T03:34:04;100410.05;;;9.60;64.62
61761;BME280;47664;51.660;-0.100;2023-03-21T03:36:37;100396.84;;;9.44;66.10
61761;BME280;47664;51.660;-0.100;2023-03-21T03:39:07;100384.51;;;9.45;66.24
61761;BME280;47664;51.660;-0.100;2023-03-21T03:41:41;100374.69;;;9.35;65.96
61761;BME280;47664;51.660;-0.100;2023-03-21T03:44:11;100387.66;;;9.08;66.48
61761;BME280;47664;51.660;-0.100;2023-03-21T03:46:44;100386.01;;;9.19;66.24
61761;BME280;47664;51.660;-0.100;2023-03-21T03:49:15;100378.64;;;8.74;67.64
61761;BME280;47664;51.660;-0.100;2023-03-21T03:51:50;100370.32;;;8.69;66.11
61761;BME280;47664;51.660;-0.100;2023-03-21T03:54:22;100370.89;;;9.21;66.42
61761;BME280;47664;51.660;-0.100;2023-03-21T03:56:52;100362.92;;;9.38;66.33
61761;BME280;47664;51.660;-0.100;2023-03-21T03:59:20;100368.15;;;9.28;66.33
61761;BME280;47664;51.660;-0.100;2023-03-21T04:01:47;100364.03;;;8.73;66.53
61761;BME280;47664;51.660;-0.100;2023-03-21T04:04:14;100352.46;;;9.07;65.59
61761;BME280;47664;51.660;-0.100;2023-03-21T04:06:42;100348.29;;;8.76;65.47
61761;BME280;47664;51.660;-0.100;2023-03-21T04:09:10;100350.65;;;8.85;66.52
61761;BME280;47664;51.660;-0.100;2023-03-21T04:11:38;100343.84;;;8.94;66.84
61761;BME280;47664;51.660;-0.100;2023-03-21T04:14:06;100348.26;;;9.39;65.00
61761;BME280;47664;51.660;-0.100;2023-03-21T04:16:33;100357.21;;;9.50;64.36
61761;BME280;47664;51.660;-0.100;2023-03-21T04:19:00;100359.09;;;9.13;64.97
61761;BME280;47664;51.660;-0.100;2023-03-21T04:21:28;100363.21;;;9.11;65.76
61761;BME280;47664;51.660;-0.100;2023-03-21T04:23:55;100344.53;;;8.56;66.53
61761;BME280;47664;51.660;-0.100;2023-03-21T04:26:23;100341.72;;;8.80;66.23
61761;BME280;47664;51.660;-0.100;2023-03-21T04:28:50;100338.47;;;8.96;65.33
61761;BME280;47664;51.660;-0.100;2023-03-21T04:31:17;100344.72;;;9.42;64.75
61761;BME280;47664;51.660;-0.100;2023-03-21T04:33:45;100335.23;;;8.96;63.93
61761;BME280;47664;51.660;-0.100;2023-03-21T04:36:12;100333.07;;;8.73;66.37
61761;BME280;47664;51.660;-0.100;2023-03-21T04:38:40;100330.21;;;9.83;64.62
61761;BME280;47664;51.660;-0.100;2023-03-21T04:41:07;100324.01;;;8.62;65.28
61761;BME280;47664;51.660;-0.100;2023-03-21T04:43:35;100314.80;;;8.71;65.04
61761;BME280;47664;51.660;-0.100;2023-03-21T04:46:02;100305.31;;;8.58;65.29
61761;BME280;47664;51.660;-0.100;2023-03-21T04:48:29;100310.24;;;8.86;65.44
61761;BME280;47664;51.660;-0.100;2023-03-21T04:50:57;100307.62;;;8.80;65.14
61761;BME280;47664;51.660;-0.100;2023-03-21T04:53:24;100322.39;;;8.79;65.11
61761;BME280;47664;51.660;-0.100;2023-03-21T04:55:50;100323.18;;;8.85;64.00
61761;BME280;47664;51.660;-0.100;2023-03-21T04:58:17;100318.44;;;9.19;64.49
61761;BME280;47664;51.660;-0.100;2023-03-21T05:00:45;100321.78;;;8.08;65.57
61761;BME280;47664;51.660;-0.100;2023-03-21T05:03:12;100326.21;;;8.21;67.26
61761;BME280;47664;51.660;-0.100;2023-03-21T05:05:39;100314.27;;;7.70;67.70
61761;BME280;47664;51.660;-0.100;2023-03-21T05:08:06;100312.89;;;9.07;66.05
61761;BME280;47664;51.660;-0.100;2023-03-21T05:10:34;100323.54;;;9.30;65.84
61761;BME280;47664;51.660;-0.100;2023-03-21T05:13:00;100321.52;;;9.38;65.53
61761;BME280;47664;51.660;-0.100;2023-03-21T05:15:27;100314.73;;;9.53;65.21
61761;BME280;47664;51.660;-0.100;2023-03-21T05:17:54;100303.69;;;8.46;65.81
61761;BME280;47664;51.660;-0.100;2023-03-21T05:20:21;100301.77;;;8.85;66.04
61761;BME280;47664;51.660;-0.100;2023-03-21T05:22:49;100301.72;;;9.16;66.19
61761;BME280;47664;51.660;-0.100;2023-03-21T05:25:17;100302.49;;;9.35;65.27
61761;BME280;47664;51.660;-0.100;2023-03-21T05:27:45;100304.73;;;8.57;65.72
61761;BME280;47664;51.660;-0.100;2023-03-21T05:30:15;100303.43;;;8.82;66.44
61761;BME280;47664;51.660;-0.100;2023-03-21T05:32:43;100305.98;;;9.13;66.82
61761;BME280;47664;51.660;-0.100;2023-03-21T05:35:11;100298.96;;;8.85;66.39
61761;BME280;47664;51.660;-0.100;2023-03-21T05:37:39;100300.61;;;8.84;66.21
61761;BME280;47664;51.660;-0.100;2023-03-21T05:40:08;100309.82;;;8.92;66.03
61761;BME280;47664;51.660;-0.100;2023-03-21T05:42:36;100308.20;;;9.22;66.44
61761;BME280;47664;51.660;-0.100;2023-03-21T05:45:04;100306.58;;;8.55;66.90
61761;BME280;47664;51.660;-0.100;2023-03-21T05:47:32;100301.67;;;8.94;67.47
61761;BME280;47664;51.660;-0.100;2023-03-21T05:50:00;100298.57;;;8.37;68.69
61761;BME280;47664;51.660;-0.100;2023-03-21T05:52:26;100296.79;;;8.14;69.47
61761;BME280;47664;51.660;-0.100;2023-03-21T05:54:54;100293.96;;;8.63;68.40
61761;BME280;47664;51.660;-0.100;2023-03-21T05:57:21;100299.54;;;8.97;68.34
61761;BME280;47664;51.660;-0.100;2023-03-21T05:59:48;100295.72;;;8.14;69.37
61761;BME280;47664;51.660;-0.100;2023-03-21T06:02:15;100286.42;;;8.75;68.30
61761;BME280;47664;51.660;-0.100;2023-03-21T06:04:42;100282.58;;;8.88;67.64
61761;BME280;47664;51.660;-0.100;2023-03-21T06:07:09;100282.40;;;8.16;67.76
61761;BME280;47664;51.660;-0.100;2023-03-21T06:09:36;100281.60;;;7.40;69.80
61761;BME280;47664;51.660;-0.100;2023-03-21T06:12:04;100281.81;;;8.39;68.21
61761;BME280;47664;51.660;-0.100;2023-03-21T06:14:31;100280.62;;;8.69;67.15
61761;BME280;47664;51.660;-0.100;2023-03-21T06:16:58;100276.97;;;8.13;68.42
61761;BME280;47664;51.660;-0.100;2023-03-21T06:19:25;100274.91;;;8.81;66.91
61761;BME280;47664;51.660;-0.100;2023-03-21T06:21:52;100281.01;;;8.54;68.14
61761;BME280;47664;51.660;-0.100;2023-03-21T06:24:19;100280.71;;;8.53;68.16
61761;BME280;47664;51.660;-0.100;2023-03-21T06:26:46;100281.04;;;7.32;70.16
61761;BME280;47664;51.660;-0.100;2023-03-21T06:29:13;100280.87;;;8.01;70.11
61761;BME280;47664;51.660;-0.100;2023-03-21T06:31:41;100293.23;;;7.27;70.85
61761;BME280;47664;51.660;-0.100;2023-03-21T06:34:08;100290.34;;;7.99;70.03
61761;BME280;47664;51.660;-0.100;2023-03-21T06:36:35;100286.34;;;8.60;68.82
61761;BME280;47664;51.660;-0.100;2023-03-21T06:39:03;100286.49;;;8.61;68.92
61761;BME280;47664;51.660;-0.100;2023-03-21T06:41:30;100290.71;;;9.28;67.72
61761;BME280;47664;51.660;-0.100;2023-03-21T06:43:57;100285.97;;;8.40;67.79
61761;BME280;47664;51.660;-0.100;2023-03-21T06:46:25;100290.51;;;9.07;66.89
61761;BME280;47664;51.660;-0.100;2023-03-21T06:48:52;100293.85;;;8.43;66.83
61761;BME280;47664;51.660;-0.100;2023-03-21T06:51:19;100294.72;;;8.87;67.56
61761;BME280;47664;51.660;-0.100;2023-03-21T06:53:45;100289.30;;;7.56;68.96
61761;BME280;47664;51.660;-0.100;2023-03-21T06:56:13;100283.30;;;7.95;70.18
61761;BME280;47664;51.660;-0.100;2023-03-21T06:58:42;100282.69;;;7.66;70.61
61761;BME280;47664;51.660;-0.100;2023-03-21T07:01:09;100278.99;;;8.16;70.31
61761;BME280;47664;51.660;-0.100;2023-03-21T07:03:36;100278.74;;;8.25;70.93
61761;BME280;47664;51.660;-0.100;2023-03-21T07:06:05;100275.84;;;7.91;71.68
61761;BME280;47664;51.660;-0.100;2023-03-21T07:08:32;100267.14;;;8.16;71.77
61761;BME280;47664;51.660;-0.100;2023-03-21T07:11:00;100267.42;;;8.53;70.34
61761;BME280;47664;51.660;-0.100;2023-03-21T07:13:27;100270.32;;;8.62;69.26
61761;BME280;47664;51.660;-0.100;2023-03-21T07:15:54;100266.58;;;8.59;69.92
61761;BME280;47664;51.660;-0.100;2023-03-21T07:18:21;100265.78;;;8.48;71.20
61761;BME280;47664;51.660;-0.100;2023-03-21T07:20:49;100267.15;;;7.61;71.56
61761;BME280;47664;51.660;-0.100;2023-03-21T07:23:17;100259.23;;;8.47;70.86
61761;BME280;47664;51.660;-0.100;2023-03-21T07:25:46;100270.00;;;7.77;70.55
61761;BME280;47664;51.660;-0.100;2023-03-21T07:28:14;100266.15;;;8.64;70.14
61761;BME280;47664;51.660;-0.100;2023-03-21T07:30:41;100266.78;;;7.97;70.43
61761;BME280;47664;51.660;-0.100;2023-03-21T07:33:09;100265.56;;;8.36;70.59
61761;BME280;47664;51.660;-0.100;2023-03-21T07:35:37;100270.87;;;8.07;71.60
61761;BME280;47664;51.660;-0.100;2023-03-21T07:38:04;100274.27;;;7.97;71.96
61761;BME280;47664;51.660;-0.100;2023-03-21T07:40:32;100276.61;;;9.33;69.32
61761;BME280;47664;51.660;-0.100;2023-03-21T07:42:59;100278.04;;;8.54;69.65
61761;BME280;47664;51.660;-0.100;2023-03-21T07:45:26;100279.91;;;9.31;68.82
61761;BME280;47664;51.660;-0.100;2023-03-21T07:47:53;100282.13;;;8.34;69.19
61761;BME280;47664;51.660;-0.100;2023-03-21T07:50:20;100282.90;;;8.52;69.78
61761;BME280;47664;51.660;-0.100;2023-03-21T07:52:47;100282.47;;;7.73;70.48
61761;BME280;47664;51.660;-0.100;2023-03-21T07:55:15;100277.17;;;8.45;70.38
61761;BME280;47664;51.660;-0.100;2023-03-21T07:57:43;100270.18;;;7.91;71.03
61761;BME280;47664;51.660;-0.100;2023-03-21T08:00:13;100278.44;;;8.74;69.48
61761;BME280;47664;51.660;-0.100;2023-03-21T08:02:40;100273.38;;;8.24;69.00
61761;BME280;47664;51.660;-0.100;2023-03-21T08:05:08;100271.08;;;8.68;69.06
61761;BME280;47664;51.660;-0.100;2023-03-21T08:07:36;100265.72;;;8.37;70.18
61761;BME280;47664;51.660;-0.100;2023-03-21T08:10:04;100264.62;;;8.93;68.79
61761;BME280;47664;51.660;-0.100;2023-03-21T08:12:31;100264.70;;;9.14;69.12
61761;BME280;47664;51.660;-0.100;2023-03-21T08:14:58;100264.83;;;8.20;70.31
61761;BME280;47664;51.660;-0.100;2023-03-21T08:17:25;100265.59;;;8.79;70.32
61761;BME280;47664;51.660;-0.100;2023-03-21T08:19:52;100272.68;;;8.42;70.17
61761;BME280;47664;51.660;-0.100;2023-03-21T08:22:19;100274.93;;;8.85;70.54
61761;BME280;47664;51.660;-0.100;2023-03-21T08:24:46;100280.41;;;8.03;71.24
61761;BME280;47664;51.660;-0.100;2023-03-21T08:27:14;100283.21;;;8.70;71.74
61761;BME280;47664;51.660;-0.100;2023-03-21T08:29:41;100285.41;;;8.26;70.57
61761;BME280;47664;51.660;-0.100;2023-03-21T08:32:08;100291.15;;;9.34;69.18
61761;BME280;47664;51.660;-0.100;2023-03-21T08:34:36;100292.19;;;8.65;69.84
61761;BME280;47664;51.660;-0.100;2023-03-21T08:37:03;100295.02;;;9.18;68.74
61761;BME280;47664;51.660;-0.100;2023-03-21T08:39:30;100300.73;;;9.38;68.39
61761;BME280;47664;51.660;-0.100;2023-03-21T08:41:57;100298.69;;;8.97;68.56
61761;BME280;47664;51.660;-0.100;2023-03-21T08:44:24;100294.21;;;9.21;68.44
61761;BME280;47664;51.660;-0.100;2023-03-21T08:46:51;100294.78;;;8.51;70.06
61761;BME280;47664;51.660;-0.100;2023-03-21T08:49:18;100288.07;;;8.94;69.51
61761;BME280;47664;51.660;-0.100;2023-03-21T08:51:45;100278.58;;;8.48;69.55
61761;BME280;47664;51.660;-0.100;2023-03-21T08:54:18;100278.06;;;9.37;68.77
61761;BME280;47664;51.660;-0.100;2023-03-21T08:56:46;100271.77;;;9.03;67.34
61761;BME280;47664;51.660;-0.100;2023-03-21T08:59:14;100271.84;;;9.76;66.52
61761;BME280;47664;51.660;-0.100;2023-03-21T09:01:42;100265.89;;;9.24;67.02
61761;BME280;47664;51.660;-0.100;2023-03-21T09:04:09;100259.33;;;9.57;67.40
61761;BME280;47664;51.660;-0.100;2023-03-21T09:06:37;100252.71;;;10.18;66.30
61761;BME280;47664;51.660;-0.100;2023-03-21T09:09:04;100253.60;;;10.25;66.78
61761;BME280;47664;51.660;-0.100;2023-03-21T09:11:31;100243.46;;;10.11;67.14
61761;BME280;47664;51.660;-0.100;2023-03-21T09:13:59;100238.68;;;10.50;65.29
61761;BME280;47664;51.660;-0.100;2023-03-21T09:16:26;100242.30;;;10.18;65.87
61761;BME280;47664;51.660;-0.100;2023-03-21T09:18:54;100247.70;;;10.21;65.62
61761;BME280;47664;51.660;-0.100;2023-03-21T09:21:21;100249.24;;;10.36;65.86
61761;BME280;47664;51.660;-0.100;2023-03-21T09:23:50;100244.03;;;9.62;65.32
61761;BME280;47664;51.660;-0.100;2023-03-21T09:26:18;100241.92;;;10.33;64.81
61761;BME280;47664;51.660;-0.100;2023-03-21T09:28:46;100240.45;;;10.56;64.01
61761;BME280;47664;51.660;-0.100;2023-03-21T09:31:13;100238.90;;;11.42;63.40
61761;BME280;47664;51.660;-0.100;2023-03-21T09:33:41;100236.26;;;10.57;64.10
61761;BME280;47664;51.660;-0.100;2023-03-21T09:36:43;100229.70;;;12.11;62.93
61761;BME280;47664;51.660;-0.100;2023-03-21T09:39:10;100224.08;;;11.66;61.59
61761;BME280;47664;51.660;-0.100;2023-03-21T09:41:47;100222.10;;;11.37;61.97
61761;BME280;47664;51.660;-0.100;2023-03-21T09:44:27;100230.66;;;11.12;62.59
61761;BME280;47664;51.660;-0.100;2023-03-21T09:47:03;100229.26;;;10.63;63.00
61761;BME280;47664;51.660;-0.100;2023-03-21T09:49:40;100229.38;;;11.34;62.43
61761;BME280;47664;51.660;-0.100;2023-03-21T09:52:11;100237.54;;;11.04;63.30
61761;BME280;47664;51.660;-0.100;2023-03-21T09:54:43;100235.46;;;9.81;64.68
61761;BME280;47664;51.660;-0.100;2023-03-21T09:57:26;100232.36;;;10.89;64.64
61761;BME280;47664;51.660;-0.100;2023-03-21T09:59:55;100226.90;;;10.27;64.80
61761;BME280;47664;51.660;-0.100;2023-03-21T10:02:35;100234.59;;;10.88;64.12
61761;BME280;47664;51.660;-0.100;2023-03-21T10:05:10;100233.15;;;10.55;64.61
61761;BME280;47664;51.660;-0.100;2023-03-21T10:07:41;100237.99;;;10.24;64.97
61761;BME280;47664;51.660;-0.100;2023-03-21T10:10:15;100238.68;;;10.49;64.95
61761;BME280;47664;51.660;-0.100;2023-03-21T10:12:45;100234.63;;;10.39;63.99
61761;BME280;47664;51.660;-0.100;2023-03-21T10:15:17;100237.88;;;11.07;64.05
61761;BME280;47664;51.660;-0.100;2023-03-21T10:17:50;100237.74;;;10.14;64.70
61761;BME280;47664;51.660;-0.100;2023-03-21T10:20:22;100231.30;;;10.73;65.60
61761;BME280;47664;51.660;-0.100;2023-03-21T10:22:52;100232.69;;;9.36;67.29
61761;BME280;47664;51.660;-0.100;2023-03-21T10:25:23;100230.68;;;10.26;67.22
61761;BME280;47664;51.660;-0.100;2023-03-21T10:27:54;100225.53;;;9.84;66.90
61761;BME280;47664;51.660;-0.100;2023-03-21T10:30:31;100218.51;;;10.41;67.47
61761;BME280;47664;51.660;-0.100;2023-03-21T10:33:03;100208.30;;;10.13;67.95
61761;BME280;47664;51.660;-0.100;2023-03-21T10:35:33;100203.73;;;10.26;67.34
61761;BME280;47664;51.660;-0.100;2023-03-21T10:38:02;100202.88;;;10.86;66.33
61761;BME280;47664;51.660;-0.100;2023-03-21T10:40:30;100199.68;;;10.70;66.98
61761;BME280;47664;51.660;-0.100;2023-03-21T10:43:17;100197.86;;;10.40;66.54
61761;BME280;47664;51.660;-0.100;2023-03-21T10:45:45;100191.07;;;9.58;66.14
61761;BME280;47664;51.660;-0.100;2023-03-21T10:48:13;100194.48;;;10.45;66.51
61761;BME280;47664;51.660;-0.100;2023-03-21T10:50:43;100188.30;;;9.71;65.75
61761;BME280;47664;51.660;-0.100;2023-03-21T10:53:19;100183.05;;;10.38;66.56
61761;BME280;47664;51.660;-0.100;2023-03-21T10:55:51;100188.28;;;10.36;66.19
61761;BME280;47664;51.660;-0.100;2023-03-21T10:58:26;100184.98;;;10.56;66.44
61761;BME280;47664;51.660;-0.100;2023-03-21T11:00:56;100182.82;;;10.07;66.21
61761;BME280;47664;51.660;-0.100;2023-03-21T11:03:26;100180.88;;;10.79;64.58
61761;BME280;47664;51.660;-0.100;2023-03-21T11:05:55;100178.47;;;10.48;64.25
61761;BME280;47664;51.660;-0.100;2023-03-21T11:08:22;100180.86;;;10.78;64.04
61761;BME280;47664;51.660;-0.100;2023-03-21T11:10:53;100173.01;;;10.90;63.65
61761;BME280;47664;51.660;-0.100;2023-03-21T11:13:25;100168.94;;;11.13;64.76
61761;BME280;47664;51.660;-0.100;2023-03-21T11:15:54;100168.07;;;10.79;64.30
61761;BME280;47664;51.660;-0.100;2023-03-21T11:18:23;100155.07;;;11.20;63.87
61761;BME280;47664;51.660;-0.100;2023-03-21T11:20:52;100161.55;;;10.46;63.00
61761;BME280;47664;51.660;-0.100;2023-03-21T11:23:22;100162.24;;;11.46;62.51
61761;BME280;47664;51.660;-0.100;2023-03-21T11:25:52;100160.44;;;10.74;62.38
61761;BME280;47664;51.660;-0.100;2023-03-21T11:28:23;100152.75;;;11.40;61.60
61761;BME280;47664;51.660;-0.100;2023-03-21T11:30:53;100151.09;;;10.80;61.08
61761;BME280;47664;51.660;-0.100;2023-03-21T11:33:24;100148.96;;;11.09;61.58
61761;BME280;47664;51.660;-0.100;2023-03-21T11:36:00;100160.08;;;10.70;61.75
61761;BME280;47664;51.660;-0.100;2023-03-21T11:38:30;100153.73;;;11.40;60.36
61761;BME280;47664;51.660;-0.100;2023-03-21T11:41:00;100141.01;;;11.05;60.50
61761;BME280;47664;51.660;-0.100;2023-03-21T11:43:30;100143.49;;;10.48;60.11
61761;BME280;47664;51.660;-0.100;2023-03-21T11:46:00;100144.56;;;11.26;59.85
61761;BME280;47664;51.660;-0.100;2023-03-21T11:48:34;100147.40;;;11.82;59.74
61761;BME280;47664;51.660;-0.100;2023-03-21T11:51:05;100153.81;;;11.38;59.71
61761;BME280;47664;51.660;-0.100;2023-03-21T11:53:41;100152.34;;;11.87;58.39
61761;BME280;47664;51.660;-0.100;2023-03-21T11:56:24;100153.70;;;11.81;59.21
61761;BME280;47664;51.660;-0.100;2023-03-21T11:59:09;100153.74;;;11.55;57.97
61761;BME280;47664;51.660;-0.100;2023-03-21T12:01:52;100156.01;;;11.66;57.59
61761;BME280;47664;51.660;-0.100;2023-03-21T12:04:32;100161.88;;;12.12;57.66
61761;BME280;47664;51.660;-0.100;2023-03-21T12:07:10;100162.59;;;11.75;59.01
61761;BME280;47664;51.660;-0.100;2023-03-21T12:09:45;100162.48;;;11.53;58.68
61761;BME280;47664;51.660;-0.100;2023-03-21T12:12:26;100158.41;;;11.88;58.98
61761;BME280;47664;51.660;-0.100;2023-03-21T12:15:04;100147.28;;;11.70;58.63
61761;BME280;47664;51.660;-0.100;2023-03-21T12:17:45;100147.19;;;11.59;58.83
61761;BME280;47664;51.660;-0.100;2023-03-21T12:20:31;100145.78;;;11.67;59.33
61761;BME280;47664;51.660;-0.100;2023-03-21T12:23:23;100148.56;;;11.41;59.40
61761;BME280;47664;51.660;-0.100;2023-03-21T12:26:11;100148.14;;;11.53;59.23
61761;BME280;47664;51.660;-0.100;2023-03-21T12:28:51;100144.32;;;11.95;58.99
61761;BME280;47664;51.660;-0.100;2023-03-21T12:31:34;100146.82;;;12.08;58.87
61761;BME280;47664;51.660;-0.100;2023-03-21T12:34:24;100141.63;;;12.18;58.76
61761;BME280;47664;51.660;-0.100;2023-03-21T12:37:06;100143.84;;;12.00;57.70
61761;BME280;47664;51.660;-0.100;2023-03-21T12:39:40;100143.12;;;12.30;57.47
61761;BME280;47664;51.660;-0.100;2023-03-21T12:42:28;100134.90;;;11.82;60.16
61761;BME280;47664;51.660;-0.100;2023-03-21T12:45:08;100128.73;;;11.80;59.84
61761;BME280;47664;51.660;-0.100;2023-03-21T12:47:40;100133.97;;;12.42;59.09
61761;BME280;47664;51.660;-0.100;2023-03-21T12:50:16;100130.70;;;12.68;57.38
61761;BME280;47664;51.660;-0.100;2023-03-21T12:52:50;100130.34;;;11.96;58.01
61761;BME280;47664;51.660;-0.100;2023-03-21T12:55:22;100132.43;;;12.74;57.32
61761;BME280;47664;51.660;-0.100;2023-03-21T12:57:54;100128.01;;;11.82;57.91
61761;BME280;47664;51.660;-0.100;2023-03-21T13:00:32;100123.59;;;12.24;59.81
61761;BME280;47664;51.660;-0.100;2023-03-21T13:03:04;100116.71;;;11.91;60.18
61761;BME280;47664;51.660;-0.100;2023-03-21T13:05:39;100113.72;;;12.00;59.95
61761;BME280;47664;51.660;-0.100;2023-03-21T13:08:16;100114.13;;;11.92;59.73
61761;BME280;47664;51.660;-0.100;2023-03-21T13:10:45;100105.21;;;11.27;60.17